Richmond Beach, WA (98160)

1:38 PM PDT on October 01, 2014 (GMT -0700)
Near Cromwell Park | Change Station
CLOSE
Current Station
Personal Weather Station
Location: Shoreline, WA
Elevation: 433 ft
Nearby Weather Stations

Elev 433 ft 47.76 °N, 122.33 °W | Updated 10 minutes ago

Mostly Cloudy
Mostly Cloudy
60.5 °F
Feels Like 60.5 °F
N
5.0
Wind Variable Wind from West
Gusts 9.0 mph

Today
High -- | Low -- °F
--% Chance of Precip.
Yesterday
High -- | Low -- °F
Precip. -- in
7:08 AM 6:48 PM
Waxing Crescent, 51% visible
Pressure 30.12 in
Visibility 10.0 miles
Clouds Few 4500 ft
Mostly Cloudy 6000 ft
Dew Point 53 °F
Humidity 77%
Rainfall 0.00 in
Snow Depth 2 in , 0 in , 0 in
UV 2 out of 12
Pollen 1.10 out of 12
Air Quality Not available.
Flu Activity Not available.
METAR KPAE 302053Z 30003KT 10SM FEW045 BKN060 15/11 A3011 RMK AO2 SLP197 T01500106 51005

More Conditions Fewer Conditions

Pressure 30.12 in
Visibility 10.0 miles
Clouds Few 4500 ft
Mostly Cloudy 6000 ft
Dew Point 53 °F
Humidity 77%
Rainfall 0.00 in
Snow Depth 2 in , 0 in , 0 in
UV 2 out of 12
Pollen 1.10 out of 12
Air Quality Not available.
Flu Activity Not available.
METAR KPAE 302053Z 30003KT 10SM FEW045 BKN060 15/11 A3011 RMK AO2 SLP197 T01500106 51005

More Conditions Fewer Conditions

10-Day Weather Forecast

Almanac

Astronomy

Oct. 01, 2014 Rise Set
Actual Time 7:08 AM PDT 6:48 PM PDT
Civil Twilight 6:38 AM PDT 7:19 PM PDT
Nautical Twilight 6:02 AM PDT 7:55 PM PDT
Astronomical Twilight 5:25 AM PDT 8:31 PM PDT
Moon 2:32 PM PDT No Moon Set
Length of Visible Light 12h 41m
Length of Day
11h 39m
Tomorrow will be 3m 25s shorter.
Waxing Crescent, 51% of the Moon is Illuminated
Today
Waxing Crescent
Oct 8
Full
Oct 15
Last Quarter
Oct 23
New
Oct 30
First Quarter

Today's Extremes

State Highs State Lows

Community

WunderPhotos

Upload Photos

1,758,037 photos uploaded!

WunderBlogs® & News

By Dr. Jeff Masters
Director of Meteorology, Weather Underground
By Kari Strenfel
Meteorologist, Weather Underground
By Christopher C. Burt
Weather Historian, Weather Underground
October 1, 2014
October 1, 2014
October 1, 2014

Nearby

Air Quality

  Air Quality AQ Index Pollutant
Wednesday Good
PM2.5
Thursday Good
PM2.5
Friday Good
PM2.5
Saturday Good
PM2.5

Snow Depth

Station Depth Elevation
Mf Nooksack 2 in 4980 ft
June Lake 0 in 3340 ft
Potato Hill 0 in 4500 ft
Grouse Camp 0 in 5380 ft
Touchet 1 in 5530 ft

Earthquake Activity

City Distance Mag. Time & Date
No recent earthquake activity has been reported nearby.
Minimum magnitude displayed is 2.5.

Coastal Water Temperatures

Place Temperature
Port Townsend, WA 52.0 °F
Seattle, WA 55.0 °F
Friday Harbor, WA 52.0 °F
Tacoma, WA 55.0 °F

Nearby Weather Stations